createdAt,value
2023-04-18T00:01:25.069Z,7.50
2023-04-18T00:03:52.224Z,7.50
2023-04-18T00:06:22.198Z,7.40
2023-04-18T00:08:49.345Z,7.40
2023-04-18T00:12:32.294Z,7.40
2023-04-18T00:14:59.200Z,7.40
2023-04-18T00:17:30.544Z,7.30
2023-04-18T00:19:58.451Z,7.30
2023-04-18T00:22:25.966Z,7.30
2023-04-18T00:24:52.995Z,7.20
2023-04-18T00:27:20.788Z,7.20
2023-04-18T00:29:48.321Z,7.20
2023-04-18T00:32:15.471Z,7.20
2023-04-18T00:34:42.352Z,7.10
2023-04-18T00:37:09.248Z,7.10
2023-04-18T00:39:36.630Z,7.10
2023-04-18T00:42:04.123Z,7.10
2023-04-18T00:44:31.954Z,7.10
2023-04-18T00:46:59.114Z,7.00
2023-04-18T00:49:26.971Z,7.00
2023-04-18T00:51:55.846Z,7.10
2023-04-18T00:54:24.475Z,7.00
2023-04-18T00:56:51.753Z,7.00
2023-04-18T00:59:19.013Z,7.00
2023-04-18T01:01:46.300Z,7.00
2023-04-18T01:04:13.769Z,7.00
2023-04-18T01:06:41.846Z,7.10
2023-04-18T01:09:08.901Z,7.10
2023-04-18T01:11:36.172Z,7.10
2023-04-18T01:14:05.552Z,7.10
2023-04-18T01:16:33.372Z,7.20
2023-04-18T01:19:04.494Z,7.20
2023-04-18T01:21:34.046Z,7.20
2023-04-18T01:24:08.866Z,7.10
2023-04-18T01:26:36.018Z,7.10
2023-04-18T01:29:02.928Z,7.10
2023-04-18T01:31:30.242Z,7.10
2023-04-18T01:33:57.186Z,7.00
2023-04-18T01:36:24.103Z,7.10
2023-04-18T01:38:51.195Z,7.00
2023-04-18T01:41:18.117Z,7.00
2023-04-18T01:43:45.078Z,6.90
2023-04-18T01:46:12.103Z,6.90
2023-04-18T01:48:39.036Z,6.90
2023-04-18T01:51:06.195Z,6.90
2023-04-18T01:53:33.155Z,6.90
2023-04-18T01:56:00.040Z,6.90
2023-04-18T01:58:27.020Z,6.90
2023-04-18T02:00:54.907Z,6.90
2023-04-18T02:03:21.949Z,6.90
2023-04-18T02:05:48.970Z,6.90
2023-04-18T02:08:16.966Z,7.00
2023-04-18T02:10:44.158Z,7.00
2023-04-18T02:13:11.248Z,7.00
2023-04-18T02:15:38.318Z,7.00
2023-04-18T02:18:05.653Z,7.00
2023-04-18T02:20:33.666Z,7.00
2023-04-18T02:23:01.154Z,7.00
2023-04-18T02:25:29.006Z,7.00
2023-04-18T02:27:57.536Z,7.00
2023-04-18T02:30:26.035Z,7.00
2023-04-18T02:32:54.330Z,7.00
2023-04-18T02:35:21.610Z,7.00
2023-04-18T02:37:48.535Z,7.10
2023-04-18T02:40:15.574Z,7.10
2023-04-18T02:42:42.489Z,7.10
2023-04-18T02:45:10.007Z,7.10
2023-04-18T02:47:43.790Z,7.10
2023-04-18T02:50:21.085Z,7.10
2023-04-18T02:52:48.124Z,7.10
2023-04-18T02:55:16.617Z,7.20
2023-04-18T02:57:43.561Z,7.20
2023-04-18T03:00:11.504Z,7.20
2023-04-18T03:02:38.806Z,7.20
2023-04-18T03:05:07.219Z,7.20
2023-04-18T03:07:34.224Z,7.20
2023-04-18T03:10:01.134Z,7.20
2023-04-18T03:12:28.057Z,7.20
2023-04-18T03:14:54.939Z,7.20
2023-04-18T03:17:21.985Z,7.20
2023-04-18T03:19:49.121Z,7.20
2023-04-18T03:22:16.456Z,7.20
2023-04-18T03:24:43.448Z,7.20
2023-04-18T03:27:10.421Z,7.20
2023-04-18T03:29:37.326Z,7.20
2023-04-18T03:32:04.795Z,7.20
2023-04-18T03:34:31.712Z,7.20
2023-04-18T03:36:58.562Z,7.20
2023-04-18T03:39:25.547Z,7.20
2023-04-18T03:41:52.655Z,7.20
2023-04-18T03:44:19.624Z,7.20
2023-04-18T03:46:47.741Z,7.20
2023-04-18T03:49:14.933Z,7.20
2023-04-18T03:51:48.030Z,7.20
2023-04-18T03:54:17.325Z,7.20
2023-04-18T03:56:45.105Z,7.20
2023-04-18T03:59:12.879Z,7.20
2023-04-18T04:01:39.853Z,7.10
2023-04-18T04:04:06.923Z,7.10
2023-04-18T04:06:33.976Z,7.10
2023-04-18T04:09:01.150Z,7.10
2023-04-18T04:11:28.036Z,7.10
2023-04-18T04:13:54.910Z,7.10
2023-04-18T04:16:21.976Z,7.10
2023-04-18T04:18:48.889Z,7.10
2023-04-18T04:21:20.077Z,7.10
2023-04-18T04:23:48.253Z,7.10
2023-04-18T04:26:15.251Z,7.10
2023-04-18T04:28:43.481Z,7.10
2023-04-18T04:31:10.694Z,7.10
2023-04-18T04:33:39.186Z,7.10
2023-04-18T04:36:07.860Z,7.10
2023-04-18T04:38:41.726Z,7.10
2023-04-18T04:41:09.301Z,7.10
2023-04-18T04:43:36.603Z,7.20
2023-04-18T04:46:04.371Z,7.20
2023-04-18T04:48:31.440Z,7.20
2023-04-18T04:50:59.556Z,7.20
2023-04-18T04:53:30.329Z,7.20
2023-04-18T04:55:58.018Z,7.30
2023-04-18T04:58:24.972Z,7.30
2023-04-18T05:00:52.723Z,7.30
2023-04-18T05:03:20.041Z,7.30
2023-04-18T05:05:48.002Z,7.30
2023-04-18T05:08:14.982Z,7.40
2023-04-18T05:10:43.311Z,7.40
2023-04-18T05:13:10.288Z,7.40
2023-04-18T05:15:37.278Z,7.40
2023-04-18T05:18:04.490Z,7.40
2023-04-18T05:20:31.417Z,7.40
2023-04-18T05:22:58.416Z,7.40
2023-04-18T05:25:26.107Z,7.40
2023-04-18T05:27:53.086Z,7.40
2023-04-18T05:30:20.342Z,7.40
2023-04-18T05:32:50.626Z,7.40
2023-04-18T05:35:17.637Z,7.40
2023-04-18T05:37:44.609Z,7.40
2023-04-18T05:40:12.610Z,7.40
2023-04-18T05:42:39.557Z,7.40
2023-04-18T05:45:07.165Z,7.40
2023-04-18T05:47:34.229Z,7.40
2023-04-18T05:50:01.276Z,7.40
2023-04-18T05:52:28.173Z,7.40
2023-04-18T05:54:55.112Z,7.40
2023-04-18T05:57:22.148Z,7.40
2023-04-18T05:59:49.257Z,7.40
2023-04-18T06:02:16.459Z,7.40
2023-04-18T06:04:48.280Z,7.40
2023-04-18T06:07:15.448Z,7.40
2023-04-18T06:09:42.324Z,7.40
2023-04-18T06:12:09.168Z,7.40
2023-04-18T06:14:36.102Z,7.50
2023-04-18T06:17:03.067Z,7.50
2023-04-18T06:19:29.988Z,7.50
2023-04-18T06:21:56.891Z,7.50
2023-04-18T06:24:23.940Z,7.50
2023-04-18T06:26:50.945Z,7.50
2023-04-18T06:29:18.317Z,7.50
2023-04-18T06:31:46.852Z,7.50
2023-04-18T06:34:16.364Z,7.50
2023-04-18T06:36:43.400Z,7.50
2023-04-18T06:39:10.445Z,7.60
2023-04-18T06:41:37.388Z,7.60
2023-04-18T06:44:04.772Z,7.50
2023-04-18T06:46:32.916Z,7.50
2023-04-18T06:49:00.497Z,7.50
2023-04-18T06:51:27.579Z,7.50
2023-04-18T06:53:54.573Z,7.60
2023-04-18T06:56:21.756Z,7.60
2023-04-18T06:58:49.420Z,7.60
2023-04-18T07:01:16.610Z,7.60
2023-04-18T07:03:43.812Z,7.70
2023-04-18T07:06:11.114Z,7.70
2023-04-18T07:08:38.790Z,7.70
2023-04-18T07:11:06.759Z,7.70
2023-04-18T07:13:33.753Z,7.80
2023-04-18T07:16:01.647Z,7.80
2023-04-18T07:18:37.381Z,7.80
2023-04-18T07:21:07.536Z,7.90
2023-04-18T07:23:35.272Z,7.90
2023-04-18T07:26:03.086Z,7.80
2023-04-18T07:28:32.370Z,7.80
2023-04-18T07:31:00.155Z,7.80
2023-04-18T07:33:31.203Z,7.80
2023-04-18T07:35:58.116Z,7.90
2023-04-18T07:38:25.204Z,7.80
2023-04-18T07:41:02.036Z,7.90
2023-04-18T07:43:28.961Z,8.00
2023-04-18T07:45:56.379Z,8.00
2023-04-18T07:48:23.588Z,8.00
2023-04-18T07:50:50.583Z,8.00
2023-04-18T07:53:17.655Z,8.10
2023-04-18T07:55:45.286Z,8.10
2023-04-18T07:58:12.350Z,8.10
2023-04-18T08:00:40.505Z,8.20
2023-04-18T08:03:09.225Z,8.30
2023-04-18T08:05:36.435Z,8.40
2023-04-18T08:08:03.424Z,8.40
2023-04-18T08:10:30.415Z,8.40
2023-04-18T08:12:57.332Z,8.50
2023-04-18T08:15:24.283Z,8.40
2023-04-18T08:17:51.556Z,8.50
2023-04-18T08:20:20.128Z,8.50
2023-04-18T08:23:05.110Z,8.30
2023-04-18T08:25:36.371Z,8.30
2023-04-18T08:28:04.185Z,8.20
2023-04-18T08:30:31.854Z,8.30
2023-04-18T08:33:02.472Z,8.40
2023-04-18T08:35:29.647Z,8.40
2023-04-18T08:37:56.648Z,8.60
2023-04-18T08:40:23.731Z,8.70
2023-04-18T08:42:52.808Z,8.90
2023-04-18T08:45:21.015Z,9.20
2023-04-18T08:47:48.154Z,9.30
2023-04-18T08:50:15.190Z,9.20
2023-04-18T08:52:48.940Z,9.10
2023-04-18T08:55:16.639Z,9.20
2023-04-18T08:57:44.729Z,9.50
2023-04-18T09:00:12.511Z,9.50
2023-04-18T09:02:43.697Z,9.50
2023-04-18T09:05:19.730Z,9.50
2023-04-18T09:07:47.732Z,9.50
2023-04-18T09:10:34.298Z,9.80
2023-04-18T09:13:03.517Z,9.90
2023-04-18T09:15:31.310Z,10.30
2023-04-18T09:18:05.792Z,10.50
2023-04-18T09:20:38.521Z,10.20
2023-04-18T09:23:10.790Z,9.80
2023-04-18T09:25:48.887Z,9.70
2023-04-18T09:28:27.926Z,9.70
2023-04-18T09:31:10.365Z,9.70
2023-04-18T09:33:38.889Z,9.80
2023-04-18T09:36:27.417Z,9.80
2023-04-18T09:38:56.985Z,9.70
2023-04-18T09:41:24.574Z,9.90
2023-04-18T09:44:11.515Z,9.90
2023-04-18T09:46:40.432Z,10.00
2023-04-18T09:49:09.686Z,10.00
2023-04-18T09:51:40.392Z,9.90
2023-04-18T09:54:08.924Z,9.90
2023-04-18T09:56:38.086Z,9.80
2023-04-18T09:59:09.883Z,9.90
2023-04-18T10:01:37.232Z,9.90
2023-04-18T10:04:06.765Z,10.00
2023-04-18T10:06:35.084Z,10.10
2023-04-18T10:09:04.608Z,10.30
2023-04-18T10:11:35.250Z,10.40
2023-04-18T10:14:07.066Z,10.40
2023-04-18T10:16:36.311Z,10.30
2023-04-18T10:19:26.196Z,10.40
2023-04-18T10:21:54.047Z,10.40
2023-04-18T10:24:57.013Z,10.50
2023-04-18T10:27:48.553Z,10.70
2023-04-18T10:30:16.747Z,10.80
2023-04-18T10:32:45.720Z,10.60
2023-04-18T10:35:12.781Z,10.50
2023-04-18T10:37:52.471Z,10.70
2023-04-18T10:40:34.211Z,10.80
2023-04-18T10:43:01.584Z,10.60
2023-04-18T10:45:32.383Z,10.70
2023-04-18T10:48:30.413Z,10.90
2023-04-18T10:51:17.524Z,10.90
2023-04-18T10:53:52.940Z,10.90
2023-04-18T10:56:21.111Z,11.20
2023-04-18T10:58:52.253Z,11.20
2023-04-18T11:01:32.685Z,11.30
2023-04-18T11:04:00.532Z,11.10
2023-04-18T11:06:27.868Z,11.00
2023-04-18T11:09:11.876Z,11.00
2023-04-18T11:11:38.860Z,11.20
2023-04-18T11:14:05.964Z,11.20
2023-04-18T11:16:34.039Z,11.10
2023-04-18T11:19:01.056Z,11.20
2023-04-18T11:21:30.589Z,11.20
2023-04-18T11:23:58.619Z,11.30
2023-04-18T11:26:26.848Z,11.50
2023-04-18T11:28:57.934Z,11.70
2023-04-18T11:31:25.719Z,11.60
2023-04-18T11:33:53.060Z,11.50
2023-04-18T11:36:19.982Z,11.60
2023-04-18T11:38:46.960Z,11.50
2023-04-18T11:41:16.679Z,11.30
2023-04-18T11:43:45.256Z,11.30
2023-04-18T11:46:13.496Z,11.40
2023-04-18T11:48:45.451Z,11.40
2023-04-18T11:51:31.876Z,11.40
2023-04-18T11:53:58.807Z,11.40
2023-04-18T11:56:25.863Z,11.40
2023-04-18T11:58:52.923Z,11.40
2023-04-18T12:01:22.168Z,11.40
2023-04-18T12:04:06.883Z,11.30
2023-04-18T12:06:51.287Z,11.50
2023-04-18T12:09:19.616Z,11.70
2023-04-18T12:11:58.521Z,11.80
2023-04-18T12:14:25.477Z,12.00
2023-04-18T12:16:52.459Z,12.10
2023-04-18T12:19:20.937Z,12.10
2023-04-18T12:22:05.365Z,12.20
2023-04-18T12:24:32.934Z,12.30
2023-04-18T12:27:00.170Z,12.40
2023-04-18T12:29:28.744Z,12.50
2023-04-18T12:31:56.070Z,12.60
2023-04-18T12:34:23.247Z,12.70
2023-04-18T12:36:50.250Z,12.70
2023-04-18T12:39:17.156Z,12.50
2023-04-18T12:41:44.512Z,12.30
2023-04-18T12:44:11.662Z,12.30
2023-04-18T12:46:38.849Z,12.30
2023-04-18T12:49:05.753Z,12.30
2023-04-18T12:51:32.975Z,12.20
2023-04-18T12:53:59.939Z,12.10
2023-04-18T12:56:26.836Z,12.00
2023-04-18T12:58:53.822Z,12.10
2023-04-18T13:01:21.054Z,12.20
2023-04-18T13:03:56.403Z,12.30
2023-04-18T13:06:31.402Z,12.40
2023-04-18T13:08:58.879Z,12.60
2023-04-18T13:11:28.735Z,12.60
2023-04-18T13:13:55.963Z,12.50
2023-04-18T13:16:23.005Z,12.60
2023-04-18T13:18:50.018Z,12.60
2023-04-18T13:21:16.934Z,12.60
2023-04-18T13:23:43.846Z,12.70
2023-04-18T13:26:10.796Z,12.70
2023-04-18T13:28:37.807Z,12.80
2023-04-18T13:31:05.643Z,12.80
2023-04-18T13:33:32.893Z,13.00
2023-04-18T13:36:00.258Z,13.10
2023-04-18T13:38:28.163Z,13.00
2023-04-18T13:41:04.786Z,13.00
2023-04-18T13:43:38.917Z,13.00
2023-04-18T13:46:05.852Z,12.90
2023-04-18T13:48:32.841Z,13.00
2023-04-18T13:50:59.758Z,13.00
2023-04-18T13:53:27.226Z,13.20
2023-04-18T13:55:55.883Z,13.40
2023-04-18T13:58:22.795Z,13.50
2023-04-18T14:00:50.049Z,13.60
2023-04-18T14:03:17.092Z,13.60
2023-04-18T14:05:44.164Z,13.60
2023-04-18T14:08:11.353Z,13.70
2023-04-18T14:10:38.507Z,13.80
2023-04-18T14:13:05.385Z,13.80
2023-04-18T14:15:33.211Z,13.50
2023-04-18T14:18:01.195Z,13.40
2023-04-18T14:20:34.237Z,13.40
2023-04-18T14:23:02.115Z,13.40
2023-04-18T14:25:30.084Z,13.30
2023-04-18T14:28:13.559Z,13.30
2023-04-18T14:30:41.260Z,13.40
2023-04-18T14:33:09.745Z,13.40
2023-04-18T14:35:37.294Z,13.50
2023-04-18T14:38:04.304Z,13.50
2023-04-18T14:40:32.885Z,13.30
2023-04-18T14:43:00.145Z,13.30
2023-04-18T14:45:27.283Z,13.10
2023-04-18T14:47:55.936Z,13.20
2023-04-18T14:50:23.373Z,13.20
2023-04-18T14:52:51.117Z,13.10
2023-04-18T14:55:20.126Z,13.00
2023-04-18T14:57:47.188Z,12.90
2023-04-18T15:00:15.597Z,13.00
2023-04-18T15:02:42.758Z,13.10
2023-04-18T15:05:11.430Z,13.10
2023-04-18T15:07:38.695Z,13.00
2023-04-18T15:10:06.634Z,13.00
2023-04-18T15:12:33.538Z,13.00
2023-04-18T15:15:00.623Z,12.90
2023-04-18T15:17:28.483Z,13.10
2023-04-18T15:19:55.453Z,13.10
2023-04-18T15:22:22.947Z,13.00
2023-04-18T15:24:49.975Z,13.00
2023-04-18T15:27:17.157Z,13.10
2023-04-18T15:29:44.441Z,13.10
2023-04-18T15:32:14.850Z,13.10
2023-04-18T15:34:42.173Z,13.10
2023-04-18T15:37:09.516Z,13.00
2023-04-18T15:39:36.728Z,12.90
2023-04-18T15:42:03.726Z,12.70
2023-04-18T15:44:33.522Z,12.60
2023-04-18T15:47:01.839Z,12.60
2023-04-18T15:49:28.903Z,12.70
2023-04-18T15:51:56.942Z,12.70
2023-04-18T15:54:23.939Z,12.70
2023-04-18T15:56:51.181Z,12.80
2023-04-18T15:59:18.073Z,12.80
2023-04-18T16:01:46.165Z,12.80
2023-04-18T16:04:13.622Z,12.70
2023-04-18T16:06:40.860Z,12.70
2023-04-18T16:09:08.042Z,12.70
2023-04-18T16:11:34.982Z,12.70
2023-04-18T16:14:01.945Z,12.70
2023-04-18T16:16:29.032Z,12.70
2023-04-18T16:18:56.216Z,12.70
2023-04-18T16:21:23.180Z,12.60
2023-04-18T16:23:50.071Z,12.60
2023-04-18T16:26:17.053Z,12.60
2023-04-18T16:28:43.993Z,12.60
2023-04-18T16:31:11.245Z,12.70
2023-04-18T16:33:41.521Z,12.60
2023-04-18T16:36:09.264Z,12.60
2023-04-18T16:38:36.210Z,12.60
2023-04-18T16:41:03.770Z,12.60
2023-04-18T16:43:31.162Z,12.60
2023-04-18T16:46:00.367Z,12.60
2023-04-18T16:48:29.504Z,12.50
2023-04-18T16:50:56.577Z,12.50
2023-04-18T16:53:24.278Z,12.50
2023-04-18T16:55:53.176Z,12.50
2023-04-18T16:58:21.561Z,12.50
2023-04-18T17:00:48.673Z,12.40
2023-04-18T17:03:15.785Z,12.30
2023-04-18T17:05:42.876Z,12.30
2023-04-18T17:08:09.830Z,12.30
2023-04-18T17:10:36.775Z,12.30
2023-04-18T17:13:03.741Z,12.30
2023-04-18T17:15:31.057Z,12.20
2023-04-18T17:18:00.468Z,12.20
2023-04-18T17:20:28.389Z,12.10
2023-04-18T17:22:55.725Z,12.10
2023-04-18T17:25:26.008Z,12.10
2023-04-18T17:27:53.018Z,12.20
2023-04-18T17:30:22.164Z,12.10
2023-04-18T17:32:51.497Z,12.10
2023-04-18T17:35:18.798Z,12.00
2023-04-18T17:37:47.659Z,12.00
2023-04-18T17:40:14.609Z,11.90
2023-04-18T17:42:41.820Z,11.90
2023-04-18T17:45:09.908Z,11.90
2023-04-18T17:47:37.157Z,11.90
2023-04-18T17:50:04.803Z,11.80
2023-04-18T17:52:31.984Z,11.80
2023-04-18T17:55:02.112Z,11.80
2023-04-18T17:57:30.605Z,11.70
2023-04-18T17:59:57.610Z,11.60
2023-04-18T18:02:24.766Z,11.60
2023-04-18T18:04:51.903Z,11.60
2023-04-18T18:07:18.902Z,11.50
2023-04-18T18:09:46.001Z,11.50
2023-04-18T18:12:13.596Z,11.40
2023-04-18T18:14:40.690Z,11.40
2023-04-18T18:17:07.953Z,11.40
2023-04-18T18:19:36.449Z,11.30
2023-04-18T18:22:03.428Z,11.20
2023-04-18T18:24:30.470Z,11.20
2023-04-18T18:26:58.214Z,11.20
2023-04-18T18:29:25.467Z,11.10
2023-04-18T18:31:52.641Z,11.10
2023-04-18T18:34:21.256Z,11.00
2023-04-18T18:36:50.496Z,10.90
2023-04-18T18:39:17.853Z,10.90
2023-04-18T18:41:44.828Z,10.90
2023-04-18T18:44:12.347Z,10.80
2023-04-18T18:46:39.325Z,10.80
2023-04-18T18:49:06.285Z,10.80
2023-04-18T18:51:33.192Z,10.70
2023-04-18T18:54:00.209Z,10.70
2023-04-18T18:56:27.202Z,10.70
2023-04-18T18:58:55.685Z,10.70
2023-04-18T19:01:23.221Z,10.70
2023-04-18T19:03:50.484Z,10.60
2023-04-18T19:06:17.497Z,10.60
2023-04-18T19:08:44.409Z,10.60
2023-04-18T19:11:12.905Z,10.50
2023-04-18T19:13:39.822Z,10.50
2023-04-18T19:16:06.913Z,10.50
2023-04-18T19:18:34.153Z,10.50
2023-04-18T19:21:01.212Z,10.40
2023-04-18T19:23:28.736Z,10.40
2023-04-18T19:25:55.740Z,10.40
2023-04-18T19:28:22.994Z,10.40
2023-04-18T19:30:50.662Z,10.30
2023-04-18T19:33:17.888Z,10.20
2023-04-18T19:35:44.858Z,10.20
2023-04-18T19:38:12.043Z,10.20
2023-04-18T19:40:40.092Z,10.20
2023-04-18T19:43:07.055Z,10.10
2023-04-18T19:45:34.045Z,10.00
2023-04-18T19:48:01.048Z,10.00
2023-04-18T19:50:28.537Z,10.00
2023-04-18T19:52:55.922Z,10.00
2023-04-18T19:55:23.117Z,10.00
2023-04-18T19:57:54.643Z,10.00
2023-04-18T20:00:21.878Z,9.90
2023-04-18T20:02:49.022Z,9.90
2023-04-18T20:05:16.333Z,9.90
2023-04-18T20:07:43.461Z,9.90
2023-04-18T20:10:11.037Z,9.90
2023-04-18T20:12:37.952Z,9.90
2023-04-18T20:15:05.844Z,10.00
2023-04-18T20:17:34.832Z,10.00
2023-04-18T20:20:01.920Z,10.00
2023-04-18T20:22:28.932Z,10.10
2023-04-18T20:24:57.391Z,10.10
2023-04-18T20:27:24.441Z,10.10
2023-04-18T20:29:51.631Z,10.10
2023-04-18T20:32:19.075Z,10.20
2023-04-18T20:34:46.785Z,10.20
2023-04-18T20:37:16.018Z,10.20
2023-04-18T20:39:43.016Z,10.20
2023-04-18T20:42:14.368Z,10.30
2023-04-18T20:44:43.312Z,10.30
2023-04-18T20:47:10.580Z,10.30
2023-04-18T20:49:38.269Z,10.30
2023-04-18T20:52:11.464Z,10.40
2023-04-18T20:54:38.573Z,10.50
2023-04-18T20:57:05.483Z,10.50
2023-04-18T20:59:32.380Z,10.50
2023-04-18T21:01:59.467Z,10.50
2023-04-18T21:04:27.247Z,10.60
2023-04-18T21:06:54.421Z,10.60
2023-04-18T21:09:21.361Z,10.60
2023-04-18T21:11:48.294Z,10.60
2023-04-18T21:14:17.299Z,10.60
2023-04-18T21:16:44.400Z,10.60
2023-04-18T21:19:12.330Z,10.60
2023-04-18T21:21:39.351Z,10.70
2023-04-18T21:24:06.694Z,10.70
2023-04-18T21:26:33.584Z,10.70
2023-04-18T21:29:02.730Z,10.70
2023-04-18T21:31:32.085Z,10.70
2023-04-18T21:34:04.356Z,10.80
2023-04-18T21:36:32.389Z,10.80
2023-04-18T21:39:01.289Z,10.80
2023-04-18T21:41:28.488Z,10.80
2023-04-18T21:43:55.519Z,10.90
2023-04-18T21:46:22.520Z,10.90
2023-04-18T21:48:49.528Z,10.90
2023-04-18T21:51:17.468Z,10.90
2023-04-18T21:53:44.574Z,11.00
2023-04-18T21:56:11.674Z,11.00
2023-04-18T21:58:38.796Z,11.00
2023-04-18T22:01:06.079Z,11.00
2023-04-18T22:03:34.300Z,11.00
2023-04-18T22:06:02.069Z,11.00
2023-04-18T22:08:29.638Z,11.00
2023-04-18T22:10:58.436Z,11.00
2023-04-18T22:13:30.249Z,11.00
2023-04-18T22:15:58.326Z,11.00
2023-04-18T22:18:26.715Z,11.00
2023-04-18T22:20:53.907Z,11.00
2023-04-18T22:23:20.886Z,11.00
2023-04-18T22:25:48.398Z,11.00
2023-04-18T22:28:15.309Z,11.00
2023-04-18T22:30:42.618Z,11.00
2023-04-18T22:33:09.800Z,11.00
2023-04-18T22:35:36.843Z,10.90
2023-04-18T22:38:03.822Z,10.90
2023-04-18T22:40:30.679Z,10.90
2023-04-18T22:42:57.592Z,10.90
2023-04-18T22:45:24.531Z,10.90
2023-04-18T22:47:51.792Z,10.90
2023-04-18T22:50:18.834Z,10.90
2023-04-18T22:52:45.897Z,10.90
2023-04-18T22:55:16.660Z,10.80
2023-04-18T22:57:43.598Z,10.80
2023-04-18T23:00:11.633Z,10.80
2023-04-18T23:02:38.958Z,10.80
2023-04-18T23:05:08.148Z,10.80
2023-04-18T23:07:35.065Z,10.80
2023-04-18T23:10:04.091Z,10.80
2023-04-18T23:12:31.070Z,10.80
2023-04-18T23:14:57.990Z,10.80
2023-04-18T23:17:24.933Z,10.80
2023-04-18T23:19:51.855Z,10.80
2023-04-18T23:22:18.743Z,10.90
2023-04-18T23:24:45.605Z,10.80
2023-04-18T23:27:12.619Z,10.90
2023-04-18T23:29:39.652Z,10.90
2023-04-18T23:32:06.932Z,10.90
2023-04-18T23:34:34.167Z,10.90
2023-04-18T23:37:01.273Z,10.90
2023-04-18T23:39:28.242Z,10.90
2023-04-18T23:41:55.135Z,10.90
2023-04-18T23:44:22.354Z,11.00
2023-04-18T23:46:49.272Z,11.00
2023-04-18T23:49:16.813Z,11.00
2023-04-18T23:51:43.711Z,11.10
2023-04-18T23:54:10.949Z,11.10
2023-04-18T23:56:37.842Z,11.10
2023-04-18T23:59:04.783Z,11.10
